Terminal Aerodrome Forecast
Issued by NWS Portland, OR

Current Version | Previous Version | Text Only | Print | Product List | Glossary On
Versions: 1 2 3 4 5 6 7 8 9 10 11 12 13 14 15 16 17 18 19 20 21 22 23 24 25 26 27 28
000
FTUS46 KPQR 210520
TAFTTD
TAF
KTTD 210520Z 2106/2206 11004KT P6SM SCT070
     FM211200 11006KT P6SM FEW020 BKN060
     FM211400 11004KT P6SM BKN060 BKN100
     FM220300 11007KT P6SM -RA OVC060=

USA.gov is the U.S. government's official web portal to all federal, state and local government web resources and services.